Time;durP1;ratioP1;P1;durP2;ratioP2;P2;SDS_P1;SDS_P2;PMS_P1;PMS_P2;Temp;Humidity;BMP_temperature;BMP_pressure;BME280_temperature;BME280_humidity;BME280_pressure;Samples;Min_cycle;Max_cycle;Signal;HPM_P1;HPM_P2
2022/06/19 00:01:11;;;;;;;;;13.00;11.33;;;;;21.64;64.03;99396.34;5057213;28;45340;-72
2022/06/19 00:03:43;;;;;;;;;11.33;9.00;;;;;21.56;64.45;99390.41;5038645;28;45421;-70
2022/06/19 00:06:09;;;;;;;;;14.67;12.00;;;;;21.45;64.52;99360.72;5058120;28;45497;-70
2022/06/19 00:08:35;;;;;;;;;11.00;8.33;;;;;21.55;64.55;99361.25;5060435;28;45224;-71
2022/06/19 00:11:02;;;;;;;;;9.00;8.67;;;;;21.57;64.41;99373.56;5042750;28;45501;-71
2022/06/19 00:13:28;;;;;;;;;12.00;11.00;;;;;21.52;64.56;99370.19;5060065;28;46196;-72
2022/06/19 00:15:54;;;;;;;;;13.00;10.33;;;;;21.60;64.38;99392.06;5042142;28;45283;-72
2022/06/19 00:18:20;;;;;;;;;12.00;10.00;;;;;21.57;64.44;99392.16;5042251;28;45535;-70
2022/06/19 00:20:46;;;;;;;;;13.67;10.33;;;;;21.62;64.54;99392.88;5060514;28;45529;-71
2022/06/19 00:23:12;;;;;;;;;14.67;10.00;;;;;21.56;64.32;99373.63;5059986;28;45594;-70
2022/06/19 00:25:38;;;;;;;;;13.67;11.33;;;;;21.63;64.35;99372.50;5060203;28;45391;-72
2022/06/19 00:28:07;;;;;;;;;11.33;10.67;;;;;21.65;64.36;99381.28;5060641;28;45441;-71
2022/06/19 00:30:32;;;;;;;;;14.00;11.67;;;;;21.61;64.41;99369.03;5060589;28;45395;-74
2022/06/19 00:32:58;;;;;;;;;13.33;9.00;;;;;21.59;64.06;99382.34;5041674;28;47112;-71
2022/06/19 00:35:28;;;;;;;;;12.00;10.00;;;;;21.60;64.17;99423.94;5060257;28;45384;-71
2022/06/19 00:37:55;;;;;;;;;11.33;9.00;;;;;21.65;64.24;99451.25;5041903;28;45292;-71
2022/06/19 00:40:23;;;;;;;;;12.33;9.33;;;;;21.65;64.50;99458.38;5060269;28;45472;-71
2022/06/19 00:42:48;;;;;;;;;11.00;8.00;;;;;21.49;64.30;99458.00;5059626;28;46072;-71
2022/06/19 00:45:40;;;;;;;;;11.33;9.00;;;;;21.62;64.34;99480.56;5041624;28;45349;-70
2022/06/19 00:48:30;;;;;;;;;9.33;8.00;;;;;21.63;64.50;99471.69;5060269;28;45338;-70
2022/06/19 00:50:59;;;;;;;;;8.00;8.00;;;;;21.62;64.14;99480.56;5060058;28;45400;-70
2022/06/19 00:53:32;;;;;;;;;9.67;7.67;;;;;21.58;64.13;99488.69;5059691;28;46126;-71
2022/06/19 00:55:59;;;;;;;;;9.33;8.33;;;;;21.62;64.06;99480.56;5059635;28;45446;-72
2022/06/19 00:58:34;;;;;;;;;14.00;9.67;;;;;21.82;63.84;99508.28;5059699;28;45325;-72
2022/06/19 01:01:11;;;;;;;;;9.33;8.00;;;;;21.84;63.25;99496.72;5059743;28;45430;-70
2022/06/19 01:03:39;;;;;;;;;9.33;7.33;;;;;21.92;62.85;99485.78;5059670;28;46082;-71
2022/06/19 01:06:06;;;;;;;;;11.00;8.67;;;;;21.80;63.42;99476.44;5060014;28;45458;-73
2022/06/19 01:08:32;;;;;;;;;13.00;9.00;;;;;21.65;63.69;99458.38;5059621;28;45502;-71
2022/06/19 01:10:58;;;;;;;;;12.33;9.00;;;;;21.79;63.91;99477.38;5059619;28;45617;-71
2022/06/19 01:13:29;;;;;;;;;9.33;8.67;;;;;21.78;63.79;99475.63;5059400;28;46416;-72
2022/06/19 01:15:55;;;;;;;;;10.67;10.00;;;;;21.68;64.41;99452.94;5059580;28;45477;-71
2022/06/19 01:18:21;;;;;;;;;11.00;9.00;;;;;21.68;64.16;99441.44;5058674;28;45338;-73
2022/06/19 01:20:52;;;;;;;;;13.67;10.00;;;;;21.69;64.50;99437.88;5059789;28;45492;-71
2022/06/19 01:23:39;;;;;;;;;14.33;10.33;;;;;21.65;65.24;99440.63;5057987;28;47114;-71
2022/06/19 01:26:05;;;;;;;;;13.00;10.33;;;;;21.62;64.59;99427.41;5059860;28;45299;-74
2022/06/19 01:28:45;;;;;;;;;11.33;10.00;;;;;21.59;64.70;99416.91;5041033;28;45251;-70
2022/06/19 01:31:21;;;;;;;;;9.00;7.67;;;;;21.58;64.61;99391.22;5059426;28;45554;-70
2022/06/19 01:33:51;;;;;;;;;12.33;9.00;;;;;21.62;64.65;99389.34;5058442;28;45381;-70
2022/06/19 01:36:21;;;;;;;;;9.00;9.00;;;;;21.59;64.50;99390.34;5058917;28;45554;-70
2022/06/19 01:38:52;;;;;;;;;13.67;12.67;;;;;21.45;65.06;99371.34;5040966;28;45521;-70
2022/06/19 01:41:23;;;;;;;;;12.67;10.67;;;;;21.37;65.62;99371.56;5059368;28;45528;-70
2022/06/19 01:43:49;;;;;;;;;15.33;12.33;;;;;21.27;65.10;99372.78;5058882;28;46053;-70
2022/06/19 01:46:17;;;;;;;;;10.67;9.33;;;;;21.27;66.00;99370.13;5058893;28;45216;-70
2022/06/19 01:48:43;;;;;;;;;13.67;12.67;;;;;21.24;65.38;99343.66;5058777;28;45502;-70
2022/06/19 01:51:09;;;;;;;;;13.00;10.67;;;;;21.31;65.20;99333.69;5059328;28;45492;-72
2022/06/19 01:53:46;;;;;;;;;12.00;9.33;;;;;21.34;65.33;99353.03;5058558;28;45992;-70
2022/06/19 01:56:13;;;;;;;;;10.00;9.00;;;;;21.31;65.75;99346.94;5058670;28;45370;-70
2022/06/19 01:58:43;;;;;;;;;10.67;8.00;;;;;21.32;65.69;99344.25;5059081;28;45473;-70
2022/06/19 02:01:10;;;;;;;;;9.67;8.67;;;;;21.49;65.82;99369.41;5060675;28;45315;-71
2022/06/19 02:03:46;;;;;;;;;13.67;9.33;;;;;21.57;65.01;99348.78;5060868;28;45538;-70
2022/06/19 02:06:17;;;;;;;;;12.33;9.67;;;;;21.53;65.03;99333.88;5057952;28;45297;-70
2022/06/19 02:08:43;;;;;;;;;11.00;9.00;;;;;21.63;64.68;99353.91;5061291;28;45394;-70
2022/06/19 02:11:13;;;;;;;;;10.00;9.00;;;;;21.75;64.57;99384.50;5060782;28;45476;-72
2022/06/19 02:13:40;;;;;;;;;10.67;8.00;;;;;21.65;64.19;99355.56;5058645;28;46239;-72
2022/06/19 02:16:10;;;;;;;;;9.00;8.00;;;;;21.74;64.25;99380.09;5058174;28;45271;-72
2022/06/19 02:18:39;;;;;;;;;11.33;9.00;;;;;21.81;64.10;99389.59;5058517;28;45493;-71
2022/06/19 02:21:07;;;;;;;;;9.00;7.00;;;;;21.84;63.99;99400.13;5040355;28;45436;-72
2022/06/19 02:23:35;;;;;;;;;11.67;8.33;;;;;21.82;63.64;99399.31;5058215;28;45473;-73
2022/06/19 02:26:04;;;;;;;;;9.67;8.00;;;;;21.74;64.02;99380.09;5058185;28;45236;-71
2022/06/19 02:28:30;;;;;;;;;11.67;7.00;;;;;21.79;63.48;99386.13;5058208;28;45503;-73
2022/06/19 02:30:56;;;;;;;;;9.67;9.00;;;;;21.78;64.06;99400.31;5058574;28;45368;-70
2022/06/19 02:33:28;;;;;;;;;9.33;9.00;;;;;21.83;64.17;99417.00;5057985;28;46153;-70
2022/06/19 02:35:54;;;;;;;;;16.33;10.00;;;;;21.93;64.48;99420.22;5058189;28;45959;-70
2022/06/19 02:38:21;;;;;;;;;9.33;8.33;;;;;21.89;64.33;99415.94;5058272;28;45319;-70
2022/06/19 02:40:58;;;;;;;;;12.33;10.00;;;;;21.87;64.32;99426.59;5040215;28;45489;-70
2022/06/19 02:43:28;;;;;;;;;10.00;8.67;;;;;21.83;64.44;99446.25;5057921;28;46312;-70
2022/06/19 02:45:54;;;;;;;;;9.67;8.00;;;;;21.78;64.47;99440.19;5057852;28;45290;-70
2022/06/19 02:48:27;;;;;;;;;10.00;9.00;;;;;21.74;64.26;99419.97;5057925;28;45517;-70
2022/06/19 02:50:54;;;;;;;;;10.00;9.67;;;;;21.87;64.43;99462.97;5057934;28;45275;-70
2022/06/19 02:53:20;;;;;;;;;11.67;10.33;;;;;21.87;64.41;99461.16;5039442;28;47617;-70
2022/06/19 02:55:46;;;;;;;;;13.67;9.00;;;;;21.79;64.51;99449.94;5057540;28;45265;-70
2022/06/19 02:58:13;;;;;;;;;9.67;9.33;;;;;21.85;64.32;99458.56;5058186;28;45422;-70
2022/06/19 03:00:40;;;;;;;;;8.33;7.67;;;;;21.74;64.45;99451.84;5058038;28;45336;-70
2022/06/19 03:03:13;;;;;;;;;9.00;8.00;;;;;21.81;64.43;99472.88;5057570;28;45478;-70
2022/06/19 03:05:39;;;;;;;;;8.00;8.00;;;;;21.60;64.12;99437.22;5039491;28;45403;-70
2022/06/19 03:08:05;;;;;;;;;10.00;8.67;;;;;21.80;64.41;99478.22;5057860;28;45291;-70
2022/06/19 03:10:30;;;;;;;;;9.67;9.33;;;;;21.78;64.76;99475.63;5058007;28;45330;-70
2022/06/19 03:12:58;;;;;;;;;9.67;9.00;;;;;21.73;63.99;99466.09;5057601;28;46101;-70
2022/06/19 03:15:24;;;;;;;;;8.67;8.33;;;;;21.72;64.51;99475.81;5057359;28;45568;-70
2022/06/19 03:17:50;;;;;;;;;8.67;8.00;;;;;21.88;64.39;99497.47;5057607;28;45427;-70
2022/06/19 03:20:19;;;;;;;;;10.00;8.33;;;;;21.89;64.34;99508.97;5057964;28;45434;-70
2022/06/19 03:22:45;;;;;;;;;9.67;8.67;;;;;21.91;64.38;99508.00;5039572;28;45559;-70
2022/06/19 03:25:11;;;;;;;;;8.00;8.00;;;;;21.93;64.24;99516.78;5039357;28;45421;-70
2022/06/19 03:27:36;;;;;;;;;8.00;8.00;;;;;21.69;63.72;99483.06;5057363;28;45515;-70
2022/06/19 03:30:03;;;;;;;;;11.67;8.00;;;;;21.88;64.00;99526.69;5056361;28;45499;-70
2022/06/19 03:32:29;;;;;;;;;14.00;10.33;;;;;21.83;64.02;99526.00;5038946;28;48039;-70
2022/06/19 03:34:56;;;;;;;;;10.00;8.00;;;;;21.76;63.99;99520.00;5056877;28;45413;-70
2022/06/19 03:37:22;;;;;;;;;9.00;7.00;;;;;21.73;64.00;99516.59;5057509;28;45220;-71
2022/06/19 03:39:48;;;;;;;;;9.33;8.33;;;;;21.84;64.38;99541.03;5056497;28;45712;-70
2022/06/19 03:42:17;;;;;;;;;11.33;9.00;;;;;21.69;63.97;99517.59;5056693;28;46749;-70
2022/06/19 03:44:43;;;;;;;;;10.00;9.00;;;;;21.74;64.45;99535.13;5057400;28;45485;-71
2022/06/19 03:47:10;;;;;;;;;8.67;6.67;;;;;21.70;63.90;99525.50;5057254;28;45379;-71
2022/06/19 03:49:35;;;;;;;;;7.67;7.00;;;;;21.69;63.74;99522.94;5057477;28;45378;-72
2022/06/19 03:52:01;;;;;;;;;7.00;6.00;;;;;21.77;63.09;99547.47;5057088;28;46152;-71
2022/06/19 03:54:26;;;;;;;;;7.33;7.00;;;;;21.72;62.85;99539.63;5056688;28;45459;-72
2022/06/19 03:56:52;;;;;;;;;6.33;6.00;;;;;21.83;62.63;99557.91;5057126;28;45236;-71
2022/06/19 03:59:17;;;;;;;;;5.33;5.00;;;;;21.72;61.65;99549.38;5057399;28;45244;-72
2022/06/19 04:01:43;;;;;;;;;9.00;5.33;;;;;21.53;61.99;99526.06;5056876;28;45536;-71
2022/06/19 04:04:10;;;;;;;;;9.00;6.00;;;;;21.57;61.81;99551.63;5056921;28;45565;-71
2022/06/19 04:06:39;;;;;;;;;6.00;6.00;;;;;21.58;61.57;99553.34;5056972;28;45508;-71
2022/06/19 04:09:07;;;;;;;;;7.33;6.00;;;;;21.61;61.38;99550.59;5057101;28;45262;-72
2022/06/19 04:11:34;;;;;;;;;4.67;4.00;;;;;21.58;61.25;99526.75;5056725;28;46224;-70
2022/06/19 04:14:00;;;;;;;;;5.00;4.67;;;;;21.63;61.04;99546.09;5056995;28;46168;-72
2022/06/19 04:16:28;;;;;;;;;8.67;5.00;;;;;21.38;61.27;99518.53;5056709;28;45507;-70
2022/06/19 04:18:56;;;;;;;;;5.00;5.00;;;;;21.61;60.76;99563.03;5056955;28;45300;-71
2022/06/19 04:21:25;;;;;;;;;5.00;4.33;;;;;21.53;60.74;99543.81;5038504;28;45721;-70
2022/06/19 04:23:55;;;;;;;;;5.00;4.67;;;;;21.67;60.71;99560.19;5056785;28;45466;-71
2022/06/19 04:26:21;;;;;;;;;7.00;6.00;;;;;21.75;60.40;99563.47;5056820;28;45300;-72
2022/06/19 04:28:47;;;;;;;;;7.00;5.33;;;;;21.67;60.55;99554.88;5038947;28;45517;-70
2022/06/19 04:31:13;;;;;;;;;7.00;5.67;;;;;21.67;60.07;99552.22;5056589;28;45331;-70
2022/06/19 04:33:41;;;;;;;;;5.00;5.00;;;;;21.62;60.68;99544.34;5056477;28;45347;-70
2022/06/19 04:36:09;;;;;;;;;6.00;5.00;;;;;21.61;60.22;99539.13;5038403;28;45450;-70
2022/06/19 04:38:40;;;;;;;;;9.00;7.67;;;;;21.73;60.26;99562.63;5056670;28;45331;-70
2022/06/19 04:41:13;;;;;;;;;4.00;4.00;;;;;21.59;60.23;99541.81;5056407;28;45776;-70
2022/06/19 04:43:39;;;;;;;;;8.00;6.00;;;;;21.72;60.26;99565.34;5056298;28;45249;-70
2022/06/19 04:46:06;;;;;;;;;8.00;6.67;;;;;21.76;59.99;99582.94;5056542;28;45232;-70
2022/06/19 04:48:32;;;;;;;;;6.00;6.00;;;;;21.71;60.04;99572.44;5056924;28;45509;-70
2022/06/19 04:50:58;;;;;;;;;7.00;5.67;;;;;21.74;60.28;99582.09;5056344;28;45496;-70
2022/06/19 04:53:24;;;;;;;;;7.33;7.00;;;;;21.79;60.33;99586.38;5057652;28;45422;-70
2022/06/19 04:55:50;;;;;;;;;9.00;6.00;;;;;21.61;60.10;99555.91;5059980;28;45258;-70
2022/06/19 04:58:15;;;;;;;;;8.00;7.00;;;;;21.66;59.79;99550.44;5060171;28;45391;-70
2022/06/19 05:00:41;;;;;;;;;6.00;5.00;;;;;21.73;59.76;99567.09;5059420;28;46620;-70
2022/06/19 05:03:07;;;;;;;;;7.33;6.00;;;;;21.68;59.65;99553.06;5058385;28;45446;-70
2022/06/19 05:05:33;;;;;;;;;6.67;6.67;;;;;21.80;59.55;99569.47;5059863;28;45224;-70
2022/06/19 05:07:58;;;;;;;;;7.33;7.33;;;;;21.76;59.60;99567.84;5059850;28;45359;-70
2022/06/19 05:10:24;;;;;;;;;10.33;7.33;;;;;21.84;59.60;99581.78;5058098;28;47714;-70
2022/06/19 05:12:57;;;;;;;;;9.00;6.00;;;;;21.80;59.36;99576.59;5059892;28;45294;-72
2022/06/19 05:15:24;;;;;;;;;10.00;7.33;;;;;21.79;59.40;99570.41;5060005;28;45387;-72
2022/06/19 05:17:52;;;;;;;;;7.67;7.00;;;;;21.87;58.92;99574.63;5060026;28;45556;-70
2022/06/19 05:20:17;;;;;;;;;8.00;6.33;;;;;21.85;59.16;99561.38;5041296;28;46757;-72
2022/06/19 05:22:43;;;;;;;;;8.33;7.00;;;;;21.88;59.01;99552.44;5059409;28;45448;-72
2022/06/19 05:25:10;;;;;;;;;8.00;6.33;;;;;21.96;59.00;99567.19;5059510;28;45478;-74
2022/06/19 05:27:36;;;;;;;;;8.33;7.33;;;;;22.00;59.00;99570.63;5059493;28;45432;-72
2022/06/19 05:30:04;;;;;;;;;10.00;8.00;;;;;22.00;58.53;99560.00;5058893;28;46112;-72
2022/06/19 05:32:29;;;;;;;;;8.00;7.00;;;;;21.96;58.85;99551.25;5040810;28;45483;-72
2022/06/19 05:34:55;;;;;;;;;9.67;9.67;;;;;21.93;58.39;99538.06;5059310;28;45389;-71
2022/06/19 05:37:21;;;;;;;;;9.67;8.00;;;;;21.93;58.57;99537.22;5060018;28;45356;-73
2022/06/19 05:39:46;;;;;;;;;8.00;7.00;;;;;21.84;58.52;99511.78;5058908;28;45327;-74
2022/06/19 05:42:12;;;;;;;;;8.00;7.00;;;;;22.06;58.66;99543.84;5058940;28;45403;-74
2022/06/19 05:44:37;;;;;;;;;7.00;7.00;;;;;22.08;58.68;99549.97;5059209;28;45437;-75
2022/06/19 05:47:03;;;;;;;;;9.67;8.00;;;;;22.01;58.04;99528.03;5041151;28;45375;-73
2022/06/19 05:49:31;;;;;;;;;7.00;7.00;;;;;22.05;58.30;99540.31;5058903;28;45462;-75
2022/06/19 05:51:59;;;;;;;;;8.00;7.00;;;;;22.08;57.93;99538.47;5040919;28;45423;-77
2022/06/19 05:54:26;;;;;;;;;6.33;6.33;;;;;22.00;58.50;99528.97;5059437;28;45407;-76
2022/06/19 05:56:52;;;;;;;;;8.00;6.67;;;;;22.17;58.17;99547.03;5059509;28;45402;-73
2022/06/19 05:59:17;;;;;;;;;7.67;7.00;;;;;22.16;57.90;99541.75;5058781;28;46007;-70
2022/06/19 06:01:43;;;;;;;;;7.00;5.67;;;;;22.16;57.49;99531.09;5058731;28;45312;-70
2022/06/19 06:04:09;;;;;;;;;11.00;6.67;;;;;22.32;57.35;99543.03;5058133;28;45419;-72
2022/06/19 06:06:34;;;;;;;;;8.67;7.33;;;;;22.20;57.19;99524.75;5059057;28;45422;-70
2022/06/19 06:09:00;;;;;;;;;10.00;8.33;;;;;22.40;56.93;99553.38;5057119;28;46272;-71
2022/06/19 06:11:26;;;;;;;;;8.00;7.00;;;;;22.35;57.32;99534.06;5058830;28;45555;-70
2022/06/19 06:13:55;;;;;;;;;3.33;2.67;;;;;22.50;56.79;99546.84;5059097;28;45476;-72
2022/06/19 06:16:21;;;;;;;;;8.00;7.33;;;;;22.53;56.65;99541.38;5058650;28;45450;-72
2022/06/19 06:18:47;;;;;;;;;8.00;7.67;;;;;22.67;56.78;99537.38;5058306;28;46065;-70
2022/06/19 06:21:22;;;;;;;;;9.00;7.67;;;;;22.69;56.14;99536.38;5058499;28;45284;-70
2022/06/19 06:23:48;;;;;;;;;7.67;7.00;;;;;22.88;55.71;99533.03;5040337;28;45601;-70
2022/06/19 06:26:17;;;;;;;;;9.00;7.33;;;;;22.97;55.73;99528.25;5058540;28;45345;-71
2022/06/19 06:28:45;;;;;;;;;7.00;6.33;;;;;23.00;55.21;99498.00;5058183;28;46603;-70
2022/06/19 06:31:11;;;;;;;;;11.67;8.33;;;;;23.11;55.45;99508.25;5058286;28;45419;-71
2022/06/19 06:33:37;;;;;;;;;8.33;7.33;;;;;23.35;55.06;99527.75;5058072;28;45300;-71
2022/06/19 06:36:04;;;;;;;;;8.00;7.00;;;;;23.49;54.97;99530.75;5058355;28;45545;-72
2022/06/19 06:38:30;;;;;;;;;8.67;8.67;;;;;23.54;53.77;99498.59;5057818;28;45983;-71
2022/06/19 06:40:55;;;;;;;;;9.67;7.00;;;;;23.42;53.71;99476.81;5058324;28;45189;-72
2022/06/19 06:43:22;;;;;;;;;9.67;8.00;;;;;23.49;54.11;99525.41;5058131;28;45317;-71
2022/06/19 06:45:51;;;;;;;;;8.67;7.33;;;;;23.38;54.88;99528.50;5058438;28;45339;-71
2022/06/19 06:48:18;;;;;;;;;8.00;7.00;;;;;23.37;54.43;99531.22;5039588;28;46678;-71
2022/06/19 06:50:44;;;;;;;;;8.00;6.33;;;;;23.33;54.85;99524.28;5057868;28;45335;-72
2022/06/19 06:53:11;;;;;;;;;6.00;5.33;;;;;23.35;54.12;99501.09;5039805;28;45356;-72
2022/06/19 06:55:42;;;;;;;;;7.00;5.67;;;;;23.54;53.89;99518.13;5058135;28;45460;-73
2022/06/19 06:58:08;;;;;;;;;9.00;8.00;;;;;23.66;53.97;99523.91;5039451;28;46319;-71
2022/06/19 07:00:34;;;;;;;;;6.67;6.00;;;;;23.79;53.82;99509.16;5057682;28;45500;-72
2022/06/19 07:02:59;;;;;;;;;9.67;8.00;;;;;23.89;53.29;99505.16;5057842;28;45465;-71
2022/06/19 07:05:28;;;;;;;;;6.00;6.00;;;;;23.94;53.27;99500.50;5058303;28;45566;-72
2022/06/19 07:07:54;;;;;;;;;7.67;7.67;;;;;24.05;53.13;99513.38;5057702;28;46474;-71
2022/06/19 07:10:20;;;;;;;;;14.00;11.33;;;;;24.12;52.64;99516.69;5057516;28;45441;-71
2022/06/19 07:12:47;;;;;;;;;7.67;7.33;;;;;24.16;52.91;99521.81;5057630;28;45421;-75
2022/06/19 07:15:13;;;;;;;;;6.00;6.00;;;;;24.14;52.60;99507.69;5056802;28;45447;-72
2022/06/19 07:17:39;;;;;;;;;14.00;11.00;;;;;23.95;52.58;99496.03;5056815;28;45544;-72
2022/06/19 07:20:06;;;;;;;;;10.33;8.33;;;;;23.90;53.02;99495.38;5039421;28;45342;-71
2022/06/19 07:22:31;;;;;;;;;8.67;8.33;;;;;23.98;53.15;99499.44;5057612;28;45544;-73
2022/06/19 07:24:57;;;;;;;;;11.67;11.00;;;;;24.18;52.57;99503.09;5039981;28;45471;-72
2022/06/19 07:27:24;;;;;;;;;9.67;8.33;;;;;24.29;52.05;99487.50;5056451;28;46689;-70
2022/06/19 07:29:50;;;;;;;;;10.33;10.00;;;;;24.45;51.52;99492.13;5056421;28;45485;-72
2022/06/19 07:32:16;;;;;;;;;10.67;10.67;;;;;24.54;51.24;99505.13;5053659;28;45653;-71
2022/06/19 07:34:42;;;;;;;;;10.33;9.33;;;;;24.64;51.08;99505.59;5056406;28;45418;-71
2022/06/19 07:37:13;;;;;;;;;11.33;10.67;;;;;24.89;50.76;99508.00;5056044;28;46719;-71
2022/06/19 07:39:39;;;;;;;;;8.00;8.00;;;;;25.10;50.33;99492.78;5055440;28;45595;-68
2022/06/19 07:42:08;;;;;;;;;9.33;8.00;;;;;25.31;50.13;99505.19;5055938;28;45582;-68
2022/06/19 07:44:34;;;;;;;;;8.67;7.33;;;;;25.45;49.96;99495.66;5042710;28;45504;-70
2022/06/19 07:52:28;;;;;;;;;12.00;10.00;;;;;26.06;48.48;99495.28;5076256;28;45471;-73
2022/06/19 07:54:54;;;;;;;;;9.33;8.67;;;;;26.22;48.16;99481.97;5076305;28;45382;-69
2022/06/19 07:57:19;;;;;;;;;7.00;6.33;;;;;26.64;46.36;99496.81;5052288;28;46674;-69
2022/06/19 07:59:45;;;;;;;;;10.00;9.33;;;;;26.64;46.39;99486.09;5055218;28;45517;-73
2022/06/19 08:02:11;;;;;;;;;14.00;12.67;;;;;26.69;45.96;99494.72;5055432;28;45251;-71
2022/06/19 08:04:36;;;;;;;;;10.00;9.33;;;;;26.60;46.08;99497.91;5055511;28;45520;-71
2022/06/19 08:07:02;;;;;;;;;11.00;9.67;;;;;26.48;46.34;99479.75;5037472;28;45672;-72
2022/06/19 08:09:28;;;;;;;;;10.33;9.00;;;;;26.46;46.78;99492.38;5052927;28;45403;-74
2022/06/19 08:11:53;;;;;;;;;9.33;8.33;;;;;26.39;47.07;99468.59;5054905;28;45339;-74
2022/06/19 08:14:19;;;;;;;;;10.00;9.00;;;;;26.51;46.80;99480.47;5055444;28;45438;-74
2022/06/19 08:16:44;;;;;;;;;10.67;10.67;;;;;26.53;45.88;99475.91;5054867;28;46079;-73
2022/06/19 08:19:10;;;;;;;;;12.33;10.33;;;;;28.13;43.68;99458.06;5036598;28;45360;-75
2022/06/19 08:21:36;;;;;;;;;12.00;11.00;;;;;28.30;42.75;99475.84;5055542;28;45486;-75
2022/06/19 08:24:02;;;;;;;;;14.67;12.33;;;;;28.09;42.43;99472.63;5038222;28;45717;-77
2022/06/19 08:26:28;;;;;;;;;14.33;13.00;;;;;28.18;42.83;99450.59;5055902;28;45916;-75
2022/06/19 08:29:02;;;;;;;;;13.00;11.33;;;;;28.57;41.72;99481.41;5041027;28;45456;-75
2022/06/19 08:31:30;;;;;;;;;12.67;11.00;;;;;28.88;40.88;99477.66;5059132;28;45463;-77
2022/06/19 08:33:56;;;;;;;;;12.67;12.00;;;;;28.90;40.71;99456.91;5059295;28;45461;-75
2022/06/19 08:36:24;;;;;;;;;13.00;12.00;;;;;28.68;40.65;99443.09;5057665;28;45438;-76
2022/06/19 08:38:54;;;;;;;;;11.33;9.00;;;;;28.68;40.94;99465.47;5058879;28;45464;-75
2022/06/19 08:41:38;;;;;;;;;11.67;11.33;;;;;28.23;41.28;99477.16;5057426;28;45603;-76
2022/06/19 08:44:23;;;;;;;;;14.67;13.00;;;;;27.70;42.37;99479.38;5040971;28;45748;-75
2022/06/19 08:47:19;;;;;;;;;12.67;11.67;;;;;27.72;42.95;99488.19;5040577;28;47968;-75
2022/06/19 08:50:02;;;;;;;;;10.00;10.00;;;;;27.85;42.95;99485.66;5058915;28;45592;-75
2022/06/19 08:52:32;;;;;;;;;12.00;11.33;;;;;28.43;41.28;99492.97;5059071;28;45381;-79
2022/06/19 08:55:15;;;;;;;;;12.00;10.33;;;;;29.00;40.46;99477.84;5058903;28;45413;-75
2022/06/19 08:58:00;;;;;;;;;10.00;8.33;;;;;29.27;39.86;99484.19;5057958;28;46705;-74
2022/06/19 09:00:48;;;;;;;;;11.33;10.33;;;;;29.44;39.69;99474.13;5057146;28;45554;-74
2022/06/19 09:06:39;;;;;;;;;13.00;11.67;;;;;37.32;27.93;99485.88;5044723;28;45778;-77
2022/06/19 09:09:07;;;;;;;;;10.00;9.33;;;;;39.29;26.37;99482.88;5057710;28;46055;-72
2022/06/19 09:11:56;;;;;;;;;9.33;9.33;;;;;39.92;23.18;99456.09;5058248;28;45759;-72
2022/06/19 09:15:08;;;;;;;;;10.00;9.67;;;;;38.25;25.62;99488.38;5057388;28;45494;-72
2022/06/19 09:18:04;;;;;;;;;8.33;8.00;;;;;38.13;25.72;99480.44;5014716;28;45501;-72
2022/06/19 09:21:20;;;;;;;;;8.67;8.67;;;;;39.63;24.65;99457.38;5027976;28;45424;-73
2022/06/19 09:23:45;;;;;;;;;9.33;8.67;;;;;40.10;24.01;99475.91;4995068;28;45332;-72
2022/06/19 09:26:35;;;;;;;;;11.00;10.33;;;;;40.99;23.56;99484.19;4994959;28;45546;-73
2022/06/19 09:29:12;;;;;;;;;7.33;7.33;;;;;41.95;21.87;99475.81;5037944;28;45591;-74
2022/06/19 09:31:44;;;;;;;;;9.00;8.00;;;;;42.05;22.01;99469.06;5055306;28;46499;-71
2022/06/19 09:34:13;;;;;;;;;9.67;8.00;;;;;43.32;20.71;99475.66;5054350;28;45755;-75
2022/06/19 09:37:11;;;;;;;;;9.67;9.00;;;;;44.10;19.84;99476.75;5056881;28;45508;-73
2022/06/19 09:39:50;;;;;;;;;9.00;9.00;;;;;43.84;19.40;99471.84;5029246;28;45503;-74
2022/06/19 09:42:47;;;;;;;;;12.33;8.33;;;;;43.52;19.61;99464.91;5005202;28;47089;-72
2022/06/19 09:45:24;;;;;;;;;9.00;8.33;;;;;43.14;20.28;99443.94;5025906;28;45469;-71
2022/06/19 09:48:04;;;;;;;;;7.00;6.33;;;;;43.41;19.28;99467.09;5025722;28;45470;-72
2022/06/19 09:50:43;;;;;;;;;9.00;8.00;;;;;43.32;20.37;99450.91;5024446;28;45434;-73
2022/06/19 09:53:27;;;;;;;;;8.67;8.67;;;;;42.65;20.83;99442.59;5008107;28;45672;-71
2022/06/19 09:56:06;;;;;;;;;9.67;8.67;;;;;42.17;20.55;99444.78;5032614;28;45494;-71
2022/06/19 09:58:58;;;;;;;;;9.00;9.00;;;;;41.13;21.72;99438.78;4951576;28;45529;-70
2022/06/19 10:01:25;;;;;;;;;10.67;9.67;;;;;41.09;22.41;99437.41;5027863;28;45490;-77
2022/06/19 10:04:01;;;;;;;;;11.33;10.00;;;;;41.37;22.08;99421.38;5026596;28;45581;-72
2022/06/19 10:06:35;;;;;;;;;10.00;10.00;;;;;42.11;21.46;99432.66;5010354;28;46534;-71
2022/06/19 10:09:30;;;;;;;;;10.33;9.67;;;;;41.95;21.32;99434.69;5025427;28;45434;-72
2022/06/19 10:12:00;;;;;;;;;12.00;11.33;;;;;41.86;22.29;99421.03;5027141;28;45524;-75
2022/06/19 10:14:52;;;;;;;;;11.67;8.33;;;;;41.82;21.77;99416.09;5018955;28;46838;-70
2022/06/19 10:17:27;;;;;;;;;10.00;9.33;;;;;39.55;23.37;99405.44;5026469;28;45379;-69
2022/06/19 10:20:17;;;;;;;;;10.00;10.00;;;;;38.85;24.86;99398.38;5037093;28;45355;-76
2022/06/19 10:23:09;;;;;;;;;9.33;9.33;;;;;39.24;24.73;99413.41;5030322;28;45418;-74
2022/06/19 10:25:35;;;;;;;;;12.00;11.00;;;;;39.66;24.31;99396.91;5027519;28;46090;-71
2022/06/19 10:28:16;;;;;;;;;11.00;10.00;;;;;40.13;23.51;99390.78;5024706;28;45608;-70
2022/06/19 10:31:16;;;;;;;;;8.67;8.67;;;;;39.97;23.73;99390.78;5026983;28;45455;-70
2022/06/19 10:33:51;;;;;;;;;12.00;12.00;;;;;39.59;24.55;99387.69;5031471;28;45532;-79
2022/06/19 10:36:46;;;;;;;;;9.33;8.33;;;;;40.23;23.89;99373.31;5037426;28;46436;-70
2022/06/19 10:39:23;;;;;;;;;12.00;11.33;;;;;40.43;23.58;99384.75;5009779;28;45388;-70
2022/06/19 10:42:06;;;;;;;;;9.33;8.33;;;;;40.18;23.95;99384.78;5027525;28;45553;-73
2022/06/19 10:44:56;;;;;;;;;11.00;10.33;;;;;40.32;23.94;99350.41;5037481;28;45359;-72
2022/06/19 10:47:43;;;;;;;;;10.00;9.33;;;;;40.41;23.12;99367.66;5037074;28;45914;-71
2022/06/19 10:50:27;;;;;;;;;10.67;10.00;;;;;40.60;23.28;99377.34;5036910;28;45437;-71
2022/06/19 10:53:08;;;;;;;;;9.00;8.67;;;;;40.05;24.18;99370.78;5036163;28;45377;-71
2022/06/19 10:55:39;;;;;;;;;9.33;8.67;;;;;40.23;24.31;99359.63;5037669;28;45457;-72
2022/06/19 10:58:17;;;;;;;;;11.00;10.67;;;;;40.46;23.98;99344.19;5019347;28;46692;-71
2022/06/19 11:00:44;;;;;;;;;9.33;8.00;;;;;40.40;24.33;99361.34;5037385;28;45303;-71
2022/06/19 11:06:27;;;;;;;;;9.00;7.33;;;;;38.57;25.79;99368.56;5037253;28;45466;-76
2022/06/19 11:09:00;;;;;;;;;8.00;7.00;;;;;38.26;26.30;99370.06;5037091;28;45529;-74
2022/06/19 11:11:28;;;;;;;;;9.67;8.33;;;;;37.03;27.58;99359.75;5037263;28;45367;-74
2022/06/19 11:13:58;;;;;;;;;11.33;10.00;;;;;35.57;30.36;99362.84;5037561;28;45431;-73
2022/06/19 11:16:25;;;;;;;;;8.67;8.33;;;;;34.12;31.93;99364.06;5037169;28;45543;-72
2022/06/19 11:18:54;;;;;;;;;8.33;8.33;;;;;33.22;34.87;99375.34;5037200;28;46144;-74
2022/06/19 11:21:24;;;;;;;;;10.00;9.67;;;;;33.03;34.29;99381.38;5035902;28;45614;-74
2022/06/19 11:23:49;;;;;;;;;8.67;7.67;;;;;32.38;35.76;99374.88;5037122;28;45501;-77
2022/06/19 11:26:20;;;;;;;;;13.67;12.67;;;;;32.24;36.04;99384.09;5037329;28;45245;-74
2022/06/19 11:29:13;;;;;;;;;12.00;11.00;;;;;32.49;36.01;99370.34;5037130;28;46268;-71
2022/06/19 11:31:59;;;;;;;;;11.00;10.00;;;;;32.57;35.09;99377.00;5037309;28;45239;-76
2022/06/19 11:34:43;;;;;;;;;9.33;9.33;;;;;32.27;35.63;99371.19;5036998;28;45224;-71
2022/06/19 11:37:12;;;;;;;;;7.67;6.33;;;;;31.68;36.79;99384.78;5037364;28;45442;-72
2022/06/19 11:39:41;;;;;;;;;11.67;10.00;;;;;31.12;38.06;99380.81;5035430;28;47703;-72
2022/06/19 11:42:35;;;;;;;;;10.67;9.00;;;;;30.79;38.42;99380.53;5036731;28;45501;-71
2022/06/19 11:45:15;;;;;;;;;1.67;1.00;;;;;30.52;39.53;99377.03;5013821;28;45559;-75
2022/06/19 11:47:58;;;;;;;;;10.00;9.00;;;;;30.34;38.84;99367.53;5037282;28;45244;-73
2022/06/19 11:50:32;;;;;;;;;11.00;11.00;;;;;30.30;39.71;99382.19;5036562;28;46266;-72
2022/06/19 11:53:01;;;;;;;;;11.33;9.67;;;;;30.10;40.25;99391.66;5036611;28;45437;-71
2022/06/19 11:55:30;;;;;;;;;12.00;10.67;;;;;30.37;39.96;99382.66;5035373;28;45568;-71